createdAt,value
2018-03-11T00:00:49.682Z,7.70
2018-03-11T00:03:28.374Z,7.60
2018-03-11T00:06:02.794Z,7.60
2018-03-11T00:08:31.798Z,7.60
2018-03-11T00:11:01.734Z,7.60
2018-03-11T00:13:36.182Z,7.60
2018-03-11T00:16:05.274Z,7.50
2018-03-11T00:18:34.210Z,7.40
2018-03-11T00:21:09.826Z,7.40
2018-03-11T00:23:37.866Z,7.40
2018-03-11T00:26:11.022Z,7.30
2018-03-11T00:28:43.566Z,7.30
2018-03-11T00:31:11.613Z,7.30
2018-03-11T00:33:40.549Z,7.30
2018-03-11T00:36:16.482Z,7.30
2018-03-11T00:38:44.510Z,7.30
2018-03-11T00:41:14.286Z,7.20
2018-03-11T00:43:44.290Z,7.20
2018-03-11T00:46:15.622Z,7.20
2018-03-11T00:48:44.567Z,7.10
2018-03-11T00:51:14.474Z,7.00
2018-03-11T00:53:47.314Z,6.90
2018-03-11T00:56:20.010Z,6.90
2018-03-11T00:58:50.058Z,6.90
2018-03-11T01:01:19.838Z,6.70
2018-03-11T01:03:49.874Z,6.70
2018-03-11T01:06:19.870Z,6.50
2018-03-11T01:08:47.898Z,6.30
2018-03-11T01:11:15.930Z,6.20
2018-03-11T01:13:47.667Z,6.10
2018-03-11T01:16:15.694Z,6.00
2018-03-11T01:18:45.610Z,5.80
2018-03-11T01:21:14.562Z,5.60
2018-03-11T01:23:44.558Z,5.60
2018-03-11T01:26:12.589Z,5.60
2018-03-11T01:28:40.602Z,5.50
2018-03-11T01:31:08.630Z,5.50
2018-03-11T01:33:36.658Z,5.50
2018-03-11T01:36:05.445Z,5.50
2018-03-11T01:38:39.002Z,5.50
2018-03-11T01:41:11.005Z,5.40
2018-03-11T01:43:39.014Z,5.40
2018-03-11T01:46:07.947Z,5.30
2018-03-11T01:48:37.618Z,5.30
2018-03-11T01:51:09.006Z,5.20
2018-03-11T01:53:38.002Z,5.00
2018-03-11T01:56:06.978Z,4.90
2018-03-11T01:58:36.902Z,4.80
2018-03-11T02:01:04.926Z,4.90
2018-03-11T02:03:38.054Z,5.00
2018-03-11T02:06:06.989Z,5.00
2018-03-11T02:08:36.757Z,4.70
2018-03-11T02:11:04.786Z,4.70
2018-03-11T02:13:33.754Z,4.50
2018-03-11T02:16:03.737Z,4.50
2018-03-11T02:18:36.530Z,4.50
2018-03-11T02:21:09.094Z,4.50
2018-03-11T02:23:37.130Z,4.50
2018-03-11T02:26:08.785Z,4.50
2018-03-11T02:28:37.734Z,4.40
2018-03-11T02:31:06.233Z,4.50
2018-03-11T02:33:35.199Z,4.60
2018-03-11T02:36:04.175Z,4.70
2018-03-11T02:38:35.731Z,4.90
2018-03-11T02:41:03.770Z,5.00
2018-03-11T02:43:31.794Z,5.20
2018-03-11T02:46:08.898Z,5.50
2018-03-11T02:48:40.914Z,5.50
2018-03-11T02:51:10.952Z,5.50
2018-03-11T02:53:45.267Z,5.50
2018-03-11T02:56:16.402Z,5.60
2018-03-11T02:58:47.229Z,5.60
2018-03-11T03:01:15.250Z,5.60
2018-03-11T03:03:46.538Z,5.50
2018-03-11T03:06:18.298Z,5.50
2018-03-11T03:08:49.942Z,5.50
2018-03-11T03:11:17.969Z,5.40
2018-03-11T03:13:46.913Z,5.40
2018-03-11T03:16:14.946Z,5.30
2018-03-11T03:18:44.898Z,5.30
2018-03-11T03:21:14.921Z,5.20
2018-03-11T03:23:48.209Z,5.20
2018-03-11T03:26:16.247Z,5.20
2018-03-11T03:28:47.097Z,5.20
2018-03-11T03:31:15.654Z,5.20
2018-03-11T03:33:44.569Z,5.20
2018-03-11T03:36:12.597Z,5.20
2018-03-11T03:38:45.749Z,5.10
2018-03-11T03:41:19.489Z,5.10
2018-03-11T03:43:48.425Z,5.10
2018-03-11T03:46:16.473Z,5.00
2018-03-11T03:48:44.477Z,4.90
2018-03-11T03:51:14.505Z,4.80
2018-03-11T03:53:48.197Z,4.70
2018-03-11T03:56:16.242Z,4.60
2018-03-11T03:58:50.356Z,4.50
2018-03-11T04:01:18.405Z,4.30
2018-03-11T04:03:46.437Z,4.20
2018-03-11T04:06:15.481Z,4.30
2018-03-11T04:08:50.681Z,4.40
2018-03-11T04:11:19.501Z,4.60
2018-03-11T04:13:48.469Z,4.60
2018-03-11T04:16:21.426Z,4.80
2018-03-11T04:18:51.797Z,4.80
2018-03-11T04:21:19.776Z,4.80
2018-03-11T04:23:50.849Z,4.80
2018-03-11T04:26:18.861Z,4.70
2018-03-11T04:28:50.196Z,4.70
2018-03-11T04:31:23.056Z,4.70
2018-03-11T04:33:51.077Z,4.70
2018-03-11T04:36:22.781Z,4.70
2018-03-11T04:38:54.540Z,4.70
2018-03-11T04:41:22.573Z,4.70
2018-03-11T04:43:51.617Z,4.60
2018-03-11T04:46:21.617Z,4.50
2018-03-11T04:48:51.630Z,4.40
2018-03-11T04:51:23.284Z,4.30
2018-03-11T04:53:51.312Z,4.50
2018-03-11T04:56:19.333Z,4.50
2018-03-11T04:58:47.348Z,4.70
2018-03-11T05:01:25.976Z,4.70
2018-03-11T05:04:06.650Z,4.50
2018-03-11T05:06:39.249Z,4.00
2018-03-11T05:09:08.253Z,4.00
2018-03-11T05:11:40.013Z,3.80
2018-03-11T05:14:08.049Z,3.50
2018-03-11T05:16:39.121Z,3.40
2018-03-11T05:19:09.144Z,3.40
2018-03-11T05:21:45.569Z,3.60
2018-03-11T05:24:15.560Z,3.80
2018-03-11T05:26:46.245Z,4.30
2018-03-11T05:29:14.277Z,4.30
2018-03-11T05:31:46.187Z,4.50
2018-03-11T05:34:15.049Z,4.60
2018-03-11T05:36:46.733Z,4.70
2018-03-11T05:39:22.029Z,4.70
2018-03-11T05:41:51.974Z,4.70
2018-03-11T05:44:19.996Z,4.60
2018-03-11T05:46:58.440Z,4.60
2018-03-11T05:49:33.249Z,4.70
2018-03-11T05:52:05.368Z,4.80
2018-03-11T05:54:34.349Z,4.80
2018-03-11T05:57:07.844Z,4.90
2018-03-11T05:59:58.376Z,5.00
2018-03-11T06:02:33.081Z,5.10
2018-03-11T06:05:03.085Z,5.20
2018-03-11T06:07:37.077Z,5.30
2018-03-11T06:10:06.093Z,5.30
2018-03-11T06:12:35.069Z,5.40
2018-03-11T06:15:04.061Z,5.40
2018-03-11T06:17:43.483Z,5.50
2018-03-11T06:20:11.500Z,5.50
2018-03-11T06:22:42.181Z,5.40
2018-03-11T06:25:12.125Z,5.40
2018-03-11T06:27:43.364Z,5.40
2018-03-11T06:30:15.984Z,5.50
2018-03-11T06:32:45.956Z,5.50
2018-03-11T06:35:17.716Z,5.60
2018-03-11T06:38:02.944Z,5.60
2018-03-11T06:40:32.924Z,5.60
2018-03-11T06:43:06.095Z,5.60
2018-03-11T06:45:36.132Z,5.70
2018-03-11T06:48:04.159Z,5.80
2018-03-11T06:50:39.804Z,6.10
2018-03-11T06:53:07.824Z,6.50
2018-03-11T06:55:36.616Z,6.70
2018-03-11T06:58:06.411Z,6.40
2018-03-11T07:00:40.407Z,6.40
2018-03-11T07:03:09.396Z,6.40
2018-03-11T07:05:39.464Z,6.40
2018-03-11T07:08:18.820Z,6.40
2018-03-11T07:10:50.134Z,6.40
2018-03-11T07:13:18.134Z,6.40
2018-03-11T07:15:47.159Z,6.50
2018-03-11T07:18:25.428Z,6.50
2018-03-11T07:20:54.375Z,6.50
2018-03-11T07:23:23.359Z,6.70
2018-03-11T07:25:51.376Z,6.70
2018-03-11T07:28:20.312Z,6.80
2018-03-11T07:30:54.348Z,6.90
2018-03-11T07:33:23.136Z,7.20
2018-03-11T07:35:51.928Z,7.30
2018-03-11T07:38:20.919Z,7.30
2018-03-11T07:40:49.707Z,7.60
2018-03-11T07:43:30.343Z,7.60
2018-03-11T07:46:03.343Z,7.90
2018-03-11T07:48:32.152Z,8.20
2018-03-11T07:51:04.916Z,8.20
2018-03-11T07:53:58.627Z,8.40
2018-03-11T07:56:30.331Z,8.40
2018-03-11T07:59:13.479Z,8.50
2018-03-11T08:01:50.640Z,8.70
2018-03-11T08:04:42.919Z,8.60
2018-03-11T08:07:24.407Z,8.70
2018-03-11T08:09:52.443Z,8.80
2018-03-11T08:12:35.907Z,8.90
2018-03-11T08:15:10.867Z,8.90
2018-03-11T08:17:39.887Z,9.00
2018-03-11T08:20:08.795Z,9.20
2018-03-11T08:22:41.166Z,9.60
2018-03-11T08:25:11.871Z,9.70
2018-03-11T08:27:40.879Z,9.70
2018-03-11T08:30:20.163Z,9.60
2018-03-11T08:32:51.355Z,9.40
2018-03-11T08:35:26.855Z,9.50
2018-03-11T08:38:06.711Z,9.70
2018-03-11T08:40:49.415Z,10.10
2018-03-11T08:43:24.031Z,10.70
2018-03-11T08:45:52.959Z,10.70
2018-03-11T08:48:31.351Z,11.50
2018-03-11T08:51:04.367Z,12.40
2018-03-11T08:53:36.218Z,13.40
2018-03-11T08:56:09.915Z,14.20
2018-03-11T08:58:40.019Z,15.00
2018-03-11T09:01:08.035Z,15.10
2018-03-11T09:03:36.810Z,15.50
2018-03-11T09:06:04.826Z,15.50
2018-03-11T09:08:32.835Z,15.70
2018-03-11T09:11:01.823Z,15.90
2018-03-11T09:13:41.639Z,15.70
2018-03-11T09:16:17.434Z,15.60
2018-03-11T09:18:45.455Z,15.30
2018-03-11T09:21:24.199Z,14.90
2018-03-11T09:23:52.215Z,14.60
2018-03-11T09:26:22.879Z,14.40
2018-03-11T09:28:50.882Z,14.40
2018-03-11T09:31:38.031Z,14.20
2018-03-11T09:34:08.983Z,13.90
2018-03-11T09:36:36.943Z,13.90
2018-03-11T09:39:09.178Z,13.60
2018-03-11T09:41:39.094Z,13.60
2018-03-11T09:44:14.578Z,13.60
2018-03-11T09:46:43.369Z,13.30
2018-03-11T09:49:14.082Z,13.50
2018-03-11T09:51:49.418Z,13.80
2018-03-11T09:54:17.446Z,13.80
2018-03-11T09:56:49.251Z,13.90
2018-03-11T09:59:20.194Z,13.90
2018-03-11T10:01:48.974Z,13.80
2018-03-11T10:04:16.995Z,13.80
2018-03-11T10:06:48.490Z,13.70
2018-03-11T10:09:16.511Z,13.70
2018-03-11T10:11:48.814Z,13.70
2018-03-11T10:14:17.858Z,14.20
2018-03-11T10:16:49.454Z,14.30
2018-03-11T10:19:25.018Z,14.70
2018-03-11T10:21:58.126Z,14.70
2018-03-11T10:24:26.925Z,15.70
2018-03-11T10:26:55.935Z,15.80
2018-03-11T10:29:25.670Z,15.40
2018-03-11T10:32:01.727Z,15.30
2018-03-11T10:34:32.925Z,15.40
2018-03-11T10:37:02.714Z,15.40
2018-03-11T10:39:32.755Z,15.30
2018-03-11T10:42:03.443Z,16.50
2018-03-11T10:44:32.446Z,16.50
2018-03-11T10:47:04.394Z,16.80
2018-03-11T10:49:35.539Z,15.70
2018-03-11T10:52:05.563Z,14.90
2018-03-11T10:54:36.699Z,14.90
2018-03-11T10:57:07.727Z,15.20
2018-03-11T10:59:35.735Z,15.00
2018-03-11T11:02:09.371Z,14.80
2018-03-11T11:04:42.205Z,14.60
2018-03-11T11:07:14.762Z,14.60
2018-03-11T11:09:42.767Z,15.10
2018-03-11T11:12:13.887Z,15.50
2018-03-11T11:14:42.783Z,15.30
2018-03-11T11:20:05.571Z,15.60
2018-03-11T11:22:39.062Z,15.00
2018-03-11T11:25:08.438Z,15.10
2018-03-11T11:27:40.575Z,14.80
2018-03-11T11:30:08.582Z,14.80
2018-03-11T11:32:56.974Z,15.10
2018-03-11T11:35:30.534Z,15.30
2018-03-11T11:38:04.109Z,15.20
2018-03-11T11:40:34.788Z,15.30
2018-03-11T11:43:03.742Z,15.40
2018-03-11T11:45:32.738Z,15.40
2018-03-11T11:48:04.726Z,15.20
2018-03-11T11:50:46.150Z,15.00
2018-03-11T11:53:24.062Z,15.00
2018-03-11T11:55:57.906Z,14.90
2018-03-11T11:58:32.022Z,15.10
2018-03-11T12:01:01.102Z,15.20
2018-03-11T12:03:35.714Z,15.00
2018-03-11T12:06:04.682Z,15.00
2018-03-11T12:08:34.378Z,15.00
2018-03-11T12:11:04.522Z,15.10
2018-03-11T12:13:48.118Z,15.40
2018-03-11T12:16:16.130Z,15.90
2018-03-11T12:18:45.105Z,16.60
2018-03-11T12:21:17.297Z,17.60
2018-03-11T12:23:48.951Z,18.00
2018-03-11T12:26:20.069Z,17.40
2018-03-11T12:28:48.991Z,16.50
2018-03-11T12:31:17.033Z,16.00
2018-03-11T12:33:47.050Z,15.40
2018-03-11T12:36:21.798Z,15.10
2018-03-11T12:38:54.201Z,15.00
2018-03-11T12:41:25.682Z,15.10
2018-03-11T12:43:57.750Z,15.30
2018-03-11T12:46:27.565Z,15.50
2018-03-11T12:48:58.358Z,15.60
2018-03-11T12:51:33.457Z,16.10
2018-03-11T12:54:07.949Z,16.60
2018-03-11T12:56:38.093Z,17.30
2018-03-11T12:59:07.993Z,17.70
2018-03-11T13:01:40.474Z,17.70
2018-03-11T13:04:08.483Z,18.50
2018-03-11T13:06:37.689Z,18.80
2018-03-11T13:09:06.649Z,18.80
2018-03-11T13:11:36.677Z,19.50
2018-03-11T13:14:09.465Z,20.50
2018-03-11T13:16:39.381Z,20.80
2018-03-11T13:19:08.322Z,20.10
2018-03-11T13:21:39.822Z,18.60
2018-03-11T13:24:07.851Z,17.80
2018-03-11T13:26:36.773Z,16.80
2018-03-11T13:29:11.229Z,15.70
2018-03-11T13:31:48.101Z,15.60
2018-03-11T13:34:26.685Z,15.50
2018-03-11T13:37:01.389Z,15.50
2018-03-11T13:39:41.340Z,15.40
2018-03-11T13:42:10.257Z,15.50
2018-03-11T13:44:39.257Z,15.60
2018-03-11T13:47:10.085Z,15.80
2018-03-11T13:49:39.109Z,15.80
2018-03-11T13:52:19.708Z,16.20
2018-03-11T13:54:47.721Z,16.20
2018-03-11T13:57:28.560Z,16.60
2018-03-11T13:59:56.596Z,16.50
2018-03-11T14:02:28.581Z,16.60
2018-03-11T14:05:02.233Z,17.20
2018-03-11T14:07:30.252Z,17.80
2018-03-11T14:09:58.371Z,18.60
2018-03-11T14:12:27.358Z,19.80
2018-03-11T14:14:55.420Z,19.80
2018-03-11T14:17:23.473Z,20.40
2018-03-11T14:19:53.677Z,20.30
2018-03-11T14:22:27.641Z,20.20
2018-03-11T14:24:55.678Z,19.60
2018-03-11T14:27:31.761Z,19.20
2018-03-11T14:30:05.457Z,18.60
2018-03-11T14:32:34.557Z,18.60
2018-03-11T14:35:09.905Z,18.40
2018-03-11T14:37:41.912Z,17.90
2018-03-11T14:40:10.841Z,17.30
2018-03-11T14:42:38.896Z,17.00
2018-03-11T14:45:06.937Z,16.60
2018-03-11T14:47:35.865Z,16.20
2018-03-11T14:50:08.453Z,15.80
2018-03-11T14:52:36.485Z,15.50
2018-03-11T14:55:04.555Z,15.30
2018-03-11T14:57:33.529Z,15.10
2018-03-11T15:00:06.988Z,14.80
2018-03-11T15:02:35.010Z,14.50
2018-03-11T15:05:03.945Z,14.30
2018-03-11T15:07:31.993Z,14.10
2018-03-11T15:10:00.011Z,14.00
2018-03-11T15:12:28.797Z,14.00
2018-03-11T15:15:01.460Z,14.00
2018-03-11T15:17:29.492Z,14.00
2018-03-11T15:20:03.008Z,13.80
2018-03-11T15:22:32.012Z,13.70
2018-03-11T15:25:06.213Z,13.60
2018-03-11T15:27:34.289Z,13.40
2018-03-11T15:30:02.304Z,13.20
2018-03-11T15:32:30.333Z,13.20
2018-03-11T15:34:59.293Z,13.10
2018-03-11T15:37:32.410Z,13.00
2018-03-11T15:40:03.241Z,13.00
2018-03-11T15:42:34.904Z,13.00
2018-03-11T15:45:03.848Z,12.90
2018-03-11T15:47:37.396Z,12.90
2018-03-11T15:50:29.073Z,12.80
2018-03-11T15:52:57.100Z,12.80
2018-03-11T15:55:25.137Z,12.70
2018-03-11T15:57:54.144Z,12.70
2018-03-11T16:00:30.033Z,12.80
2018-03-11T16:03:00.738Z,12.70
2018-03-11T16:05:33.264Z,12.70
2018-03-11T16:08:02.309Z,12.60
2018-03-11T16:10:30.339Z,12.50
2018-03-11T16:13:04.041Z,12.50
2018-03-11T16:15:37.736Z,12.40
2018-03-11T16:18:14.169Z,12.40
2018-03-11T16:20:42.188Z,12.30
2018-03-11T16:23:13.249Z,12.30
2018-03-11T16:25:43.162Z,12.30
2018-03-11T16:28:13.180Z,12.20
2018-03-11T16:30:43.209Z,12.10
2018-03-11T16:33:18.972Z,12.00
2018-03-11T16:35:47.040Z,11.80
2018-03-11T16:38:17.016Z,11.70
2018-03-11T16:40:46.980Z,11.50
2018-03-11T16:43:24.928Z,11.50
2018-03-11T16:45:55.900Z,11.40
2018-03-11T16:48:45.745Z,11.30
2018-03-11T16:54:08.552Z,11.20
2018-03-11T16:56:47.540Z,11.10
2018-03-11T16:59:19.740Z,11.10
2018-03-11T17:01:54.343Z,10.90
2018-03-11T17:04:23.360Z,10.90
2018-03-11T17:06:51.435Z,10.90
2018-03-11T17:09:24.092Z,10.80
2018-03-11T17:11:57.012Z,10.70
2018-03-11T17:14:35.488Z,10.60
2018-03-11T17:17:08.695Z,10.60
2018-03-11T17:19:42.483Z,10.50
2018-03-11T17:22:14.355Z,10.50
2018-03-11T17:24:53.883Z,10.40
2018-03-11T17:27:24.968Z,10.40
2018-03-11T17:29:55.672Z,10.30
2018-03-11T17:32:23.708Z,10.30
2018-03-11T17:34:51.736Z,10.30
2018-03-11T17:37:23.460Z,10.30
2018-03-11T17:39:52.496Z,10.30
2018-03-11T17:42:24.124Z,10.20
2018-03-11T17:44:53.112Z,10.20
2018-03-11T17:47:21.136Z,10.50
2018-03-11T17:49:49.163Z,10.70
2018-03-11T17:52:17.176Z,10.80
2018-03-11T17:54:47.344Z,10.90
2018-03-11T17:57:16.327Z,10.80
2018-03-11T17:59:46.260Z,10.60
2018-03-11T18:02:18.525Z,10.20
2018-03-11T18:04:46.552Z,10.20
2018-03-11T18:07:16.496Z,10.00
2018-03-11T18:09:48.763Z,9.90
2018-03-11T18:12:25.308Z,9.80
2018-03-11T18:14:56.372Z,9.80
2018-03-11T18:17:24.403Z,9.70
2018-03-11T18:20:03.947Z,9.60
2018-03-11T18:22:32.683Z,9.60
2018-03-11T18:25:01.819Z,9.50
2018-03-11T18:27:43.075Z,9.40
2018-03-11T18:30:20.004Z,9.20
2018-03-11T18:32:48.039Z,9.20
2018-03-11T18:35:16.055Z,9.20
2018-03-11T18:37:54.484Z,9.20
2018-03-11T18:40:29.275Z,9.20
2018-03-11T18:43:15.756Z,9.20
2018-03-11T18:45:44.707Z,9.20
2018-03-11T18:48:18.439Z,9.10
2018-03-11T18:50:47.431Z,9.00
2018-03-11T18:53:22.207Z,9.00
2018-03-11T18:58:39.668Z,9.00
2018-03-11T19:01:18.609Z,9.00
2018-03-11T19:03:56.658Z,9.10
2018-03-11T19:06:26.561Z,9.10
2018-03-11T19:09:02.382Z,9.00
2018-03-11T19:11:50.691Z,8.90
2018-03-11T19:14:19.731Z,8.90
2018-03-11T19:16:47.747Z,8.90
2018-03-11T19:19:15.819Z,8.90
2018-03-11T19:21:44.831Z,8.90
2018-03-11T19:24:13.874Z,8.90
2018-03-11T19:26:45.199Z,8.90
2018-03-11T19:29:19.947Z,8.90
2018-03-11T19:31:48.147Z,8.90
2018-03-11T19:34:16.167Z,8.90
2018-03-11T19:36:46.230Z,8.90
2018-03-11T19:39:18.755Z,8.90
2018-03-11T19:41:46.782Z,8.80
2018-03-11T19:44:19.275Z,8.70
2018-03-11T19:46:47.303Z,8.60
2018-03-11T19:49:16.434Z,8.50
2018-03-11T19:51:45.807Z,8.40
2018-03-11T19:54:17.178Z,8.30
2018-03-11T19:56:53.374Z,8.30
2018-03-11T19:59:21.450Z,8.30
2018-03-11T20:01:49.546Z,8.30
2018-03-11T20:04:19.298Z,8.30
2018-03-11T20:06:47.347Z,8.30
2018-03-11T20:09:15.381Z,8.30
2018-03-11T20:11:43.602Z,8.20
2018-03-11T20:14:12.618Z,8.10
2018-03-11T20:16:47.807Z,8.00
2018-03-11T20:19:18.015Z,7.90
2018-03-11T20:21:48.800Z,7.80
2018-03-11T20:24:19.751Z,7.80
2018-03-11T20:26:48.790Z,7.80
2018-03-11T20:29:21.270Z,7.80
2018-03-11T20:32:05.610Z,7.90
2018-03-11T20:34:37.886Z,7.90
2018-03-11T20:37:07.182Z,7.90
2018-03-11T20:39:53.066Z,7.80
2018-03-11T20:42:23.570Z,7.80
2018-03-11T20:45:05.362Z,7.70
2018-03-11T20:47:34.326Z,7.60
2018-03-11T20:50:04.367Z,7.60
2018-03-11T20:52:32.390Z,7.80
2018-03-11T20:55:00.446Z,7.80
2018-03-11T20:57:30.418Z,7.80
2018-03-11T21:00:01.126Z,7.80
2018-03-11T21:02:31.177Z,7.80
2018-03-11T21:05:00.062Z,7.90
2018-03-11T21:07:32.214Z,7.90
2018-03-11T21:10:00.269Z,7.90
2018-03-11T21:12:30.330Z,7.90
2018-03-11T21:14:59.143Z,7.70
2018-03-11T21:17:27.173Z,7.70
2018-03-11T21:19:56.046Z,7.40
2018-03-11T21:22:31.459Z,7.40
2018-03-11T21:25:02.630Z,7.40
2018-03-11T21:27:41.354Z,7.30
2018-03-11T21:30:10.314Z,7.10
2018-03-11T21:32:40.294Z,7.10
2018-03-11T21:35:09.272Z,7.00
2018-03-11T21:37:39.273Z,6.90
2018-03-11T21:40:14.394Z,6.70
2018-03-11T21:42:43.306Z,6.70
2018-03-11T21:45:11.346Z,6.70
2018-03-11T21:47:39.394Z,6.70
2018-03-11T21:50:07.478Z,6.70
2018-03-11T21:52:35.508Z,6.80
2018-03-11T21:55:03.552Z,6.90
2018-03-11T21:57:31.571Z,7.00
2018-03-11T22:00:00.629Z,7.00
2018-03-11T22:02:28.670Z,7.10
2018-03-11T22:04:56.721Z,7.10
2018-03-11T22:07:26.686Z,7.10
2018-03-11T22:09:57.385Z,6.70
2018-03-11T22:12:27.361Z,6.70
2018-03-11T22:14:56.450Z,6.50
2018-03-11T22:17:28.190Z,6.40
2018-03-11T22:19:56.537Z,6.40
2018-03-11T22:22:25.538Z,6.30
2018-03-11T22:24:54.682Z,6.40
2018-03-11T22:27:23.714Z,6.50
2018-03-11T22:29:55.482Z,6.60
2018-03-11T22:32:24.466Z,6.60
2018-03-11T22:34:55.806Z,6.80
2018-03-11T22:37:23.846Z,6.90
2018-03-11T22:39:54.593Z,7.00
2018-03-11T22:42:24.554Z,7.00
2018-03-11T22:44:53.349Z,6.90
2018-03-11T22:47:21.385Z,6.80
2018-03-11T22:50:01.046Z,6.80
2018-03-11T22:52:29.082Z,6.60
2018-03-11T22:54:57.117Z,6.50
2018-03-11T22:57:26.070Z,6.40
2018-03-11T22:59:56.150Z,6.30
2018-03-11T23:02:28.237Z,6.10
2018-03-11T23:05:01.134Z,6.10
2018-03-11T23:07:29.165Z,6.10
2018-03-11T23:09:59.154Z,6.10
2018-03-11T23:12:27.189Z,6.10
2018-03-11T23:14:56.133Z,6.10
2018-03-11T23:17:29.170Z,6.10
2018-03-11T23:19:57.208Z,6.20
2018-03-11T23:22:28.894Z,6.20
2018-03-11T23:24:56.934Z,6.30
2018-03-11T23:27:28.634Z,6.30
2018-03-11T23:29:56.720Z,6.30
2018-03-11T23:32:26.501Z,6.30
2018-03-11T23:34:55.430Z,6.30
2018-03-11T23:37:27.094Z,6.30
2018-03-11T23:39:59.929Z,6.30
2018-03-11T23:42:31.581Z,6.30
2018-03-11T23:44:59.613Z,6.40
2018-03-11T23:47:27.645Z,6.40
2018-03-11T23:49:56.433Z,6.40
2018-03-11T23:52:28.986Z,6.30
2018-03-11T23:54:57.009Z,6.30
2018-03-11T23:57:35.393Z,6.30
